sensor_id;sensor_type;location;lat;lon;timestamp;P1;durP1;ratioP1;P2;durP2;ratioP2
66585;SDS011;53444;45.822;16.092;2022-09-01T00:01:45;3.40;;;2.90;;
66585;SDS011;53444;45.822;16.092;2022-09-01T00:04:16;3.03;;;2.40;;
66585;SDS011;53444;45.822;16.092;2022-09-01T00:06:44;4.32;;;2.95;;
66585;SDS011;53444;45.822;16.092;2022-09-01T00:09:13;4.05;;;2.92;;
66585;SDS011;53444;45.822;16.092;2022-09-01T00:11:42;3.47;;;2.97;;
66585;SDS011;53444;45.822;16.092;2022-09-01T00:14:10;4.20;;;2.57;;
66585;SDS011;53444;45.822;16.092;2022-09-01T00:16:37;3.75;;;2.50;;
66585;SDS011;53444;45.822;16.092;2022-09-01T00:19:04;3.38;;;2.70;;
66585;SDS011;53444;45.822;16.092;2022-09-01T00:21:34;3.85;;;2.50;;
66585;SDS011;53444;45.822;16.092;2022-09-01T00:24:02;3.35;;;2.85;;
66585;SDS011;53444;45.822;16.092;2022-09-01T00:26:30;3.23;;;2.77;;
66585;SDS011;53444;45.822;16.092;2022-09-01T00:28:57;3.22;;;2.65;;
66585;SDS011;53444;45.822;16.092;2022-09-01T00:31:24;3.65;;;2.78;;
66585;SDS011;53444;45.822;16.092;2022-09-01T00:33:51;3.95;;;2.72;;
66585;SDS011;53444;45.822;16.092;2022-09-01T00:36:19;4.03;;;3.00;;
66585;SDS011;53444;45.822;16.092;2022-09-01T00:38:48;3.27;;;2.80;;
66585;SDS011;53444;45.822;16.092;2022-09-01T00:41:18;4.15;;;3.00;;
66585;SDS011;53444;45.822;16.092;2022-09-01T00:43:48;3.95;;;3.08;;
66585;SDS011;53444;45.822;16.092;2022-09-01T00:46:17;6.57;;;3.00;;
66585;SDS011;53444;45.822;16.092;2022-09-01T00:48:45;3.97;;;3.08;;
66585;SDS011;53444;45.822;16.092;2022-09-01T00:51:14;3.07;;;2.67;;
66585;SDS011;53444;45.822;16.092;2022-09-01T00:53:41;3.63;;;3.30;;
66585;SDS011;53444;45.822;16.092;2022-09-01T00:56:11;5.18;;;3.08;;
66585;SDS011;53444;45.822;16.092;2022-09-01T00:58:39;3.92;;;3.50;;
66585;SDS011;53444;45.822;16.092;2022-09-01T01:01:08;5.18;;;3.40;;
66585;SDS011;53444;45.822;16.092;2022-09-01T01:03:35;4.20;;;3.20;;
66585;SDS011;53444;45.822;16.092;2022-09-01T01:06:04;4.10;;;3.40;;
66585;SDS011;53444;45.822;16.092;2022-09-01T01:08:34;4.20;;;3.58;;
66585;SDS011;53444;45.822;16.092;2022-09-01T01:11:04;4.60;;;3.30;;
66585;SDS011;53444;45.822;16.092;2022-09-01T01:13:37;5.97;;;3.50;;
66585;SDS011;53444;45.822;16.092;2022-09-01T01:16:15;3.90;;;3.30;;
66585;SDS011;53444;45.822;16.092;2022-09-01T01:18:41;3.92;;;3.33;;
66585;SDS011;53444;45.822;16.092;2022-09-01T01:21:12;3.53;;;3.22;;
66585;SDS011;53444;45.822;16.092;2022-09-01T01:24:00;4.65;;;3.25;;
66585;SDS011;53444;45.822;16.092;2022-09-01T01:26:33;4.05;;;3.67;;
66585;SDS011;53444;45.822;16.092;2022-09-01T01:29:00;6.17;;;3.37;;
66585;SDS011;53444;45.822;16.092;2022-09-01T01:31:27;4.32;;;3.30;;
66585;SDS011;53444;45.822;16.092;2022-09-01T01:33:56;4.38;;;3.38;;
66585;SDS011;53444;45.822;16.092;2022-09-01T01:36:26;4.00;;;3.47;;
66585;SDS011;53444;45.822;16.092;2022-09-01T01:38:57;3.92;;;3.58;;
66585;SDS011;53444;45.822;16.092;2022-09-01T01:41:28;4.80;;;3.80;;
66585;SDS011;53444;45.822;16.092;2022-09-01T01:43:57;4.20;;;3.53;;
66585;SDS011;53444;45.822;16.092;2022-09-01T01:46:28;4.82;;;3.28;;
66585;SDS011;53444;45.822;16.092;2022-09-01T01:48:55;5.10;;;3.47;;
66585;SDS011;53444;45.822;16.092;2022-09-01T01:51:22;4.03;;;3.38;;
66585;SDS011;53444;45.822;16.092;2022-09-01T01:53:52;4.87;;;3.60;;
66585;SDS011;53444;45.822;16.092;2022-09-01T01:56:20;4.28;;;3.67;;
66585;SDS011;53444;45.822;16.092;2022-09-01T01:58:49;5.05;;;3.50;;
66585;SDS011;53444;45.822;16.092;2022-09-01T02:01:22;4.85;;;3.60;;
66585;SDS011;53444;45.822;16.092;2022-09-01T02:03:49;4.80;;;3.40;;
66585;SDS011;53444;45.822;16.092;2022-09-01T02:06:19;3.77;;;3.23;;
66585;SDS011;53444;45.822;16.092;2022-09-01T02:08:49;4.50;;;3.15;;
66585;SDS011;53444;45.822;16.092;2022-09-01T02:11:19;4.45;;;3.67;;
66585;SDS011;53444;45.822;16.092;2022-09-01T02:13:46;3.50;;;3.20;;
66585;SDS011;53444;45.822;16.092;2022-09-01T02:16:13;4.05;;;3.10;;
66585;SDS011;53444;45.822;16.092;2022-09-01T02:18:42;3.10;;;2.80;;
66585;SDS011;53444;45.822;16.092;2022-09-01T02:21:12;4.68;;;3.10;;
66585;SDS011;53444;45.822;16.092;2022-09-01T02:23:42;3.70;;;2.95;;
66585;SDS011;53444;45.822;16.092;2022-09-01T02:26:09;3.17;;;2.83;;
66585;SDS011;53444;45.822;16.092;2022-09-01T02:28:37;4.45;;;3.40;;
66585;SDS011;53444;45.822;16.092;2022-09-01T02:31:06;5.20;;;2.77;;
66585;SDS011;53444;45.822;16.092;2022-09-01T02:33:35;3.20;;;2.80;;
66585;SDS011;53444;45.822;16.092;2022-09-01T02:36:05;3.67;;;3.38;;
66585;SDS011;53444;45.822;16.092;2022-09-01T02:38:34;3.08;;;2.78;;
66585;SDS011;53444;45.822;16.092;2022-09-01T02:41:01;3.55;;;3.22;;
66585;SDS011;53444;45.822;16.092;2022-09-01T02:43:29;3.67;;;3.10;;
66585;SDS011;53444;45.822;16.092;2022-09-01T02:45:57;3.85;;;2.90;;
66585;SDS011;53444;45.822;16.092;2022-09-01T02:48:25;4.97;;;3.22;;
66585;SDS011;53444;45.822;16.092;2022-09-01T02:50:57;4.10;;;2.95;;
66585;SDS011;53444;45.822;16.092;2022-09-01T02:53:27;4.20;;;3.10;;
66585;SDS011;53444;45.822;16.092;2022-09-01T02:55:54;3.77;;;3.13;;
66585;SDS011;53444;45.822;16.092;2022-09-01T02:58:23;4.30;;;3.30;;
66585;SDS011;53444;45.822;16.092;2022-09-01T03:00:51;4.55;;;3.22;;
66585;SDS011;53444;45.822;16.092;2022-09-01T03:03:19;3.80;;;3.28;;
66585;SDS011;53444;45.822;16.092;2022-09-01T03:05:47;5.80;;;3.30;;
66585;SDS011;53444;45.822;16.092;2022-09-01T03:08:20;3.80;;;3.10;;
66585;SDS011;53444;45.822;16.092;2022-09-01T03:10:50;3.85;;;3.17;;
66585;SDS011;53444;45.822;16.092;2022-09-01T03:13:18;3.72;;;3.33;;
66585;SDS011;53444;45.822;16.092;2022-09-01T03:15:47;5.45;;;3.40;;
66585;SDS011;53444;45.822;16.092;2022-09-01T03:18:15;4.32;;;3.92;;
66585;SDS011;53444;45.822;16.092;2022-09-01T03:20:43;4.10;;;3.70;;
66585;SDS011;53444;45.822;16.092;2022-09-01T03:23:12;4.45;;;3.58;;
66585;SDS011;53444;45.822;16.092;2022-09-01T03:25:43;4.57;;;3.80;;
66585;SDS011;53444;45.822;16.092;2022-09-01T03:28:13;4.32;;;3.20;;
66585;SDS011;53444;45.822;16.092;2022-09-01T03:30:43;3.65;;;3.35;;
66585;SDS011;53444;45.822;16.092;2022-09-01T03:33:13;4.33;;;3.57;;
66585;SDS011;53444;45.822;16.092;2022-09-01T03:35:41;3.58;;;3.20;;
66585;SDS011;53444;45.822;16.092;2022-09-01T03:38:09;4.78;;;3.70;;
66585;SDS011;53444;45.822;16.092;2022-09-01T03:40:38;4.00;;;3.60;;
66585;SDS011;53444;45.822;16.092;2022-09-01T03:43:07;4.85;;;3.97;;
66585;SDS011;53444;45.822;16.092;2022-09-01T03:45:39;4.30;;;3.37;;
66585;SDS011;53444;45.822;16.092;2022-09-01T03:48:07;4.18;;;3.28;;
66585;SDS011;53444;45.822;16.092;2022-09-01T03:50:35;3.60;;;3.20;;
66585;SDS011;53444;45.822;16.092;2022-09-01T03:53:10;4.45;;;3.25;;
66585;SDS011;53444;45.822;16.092;2022-09-01T03:55:38;4.18;;;3.65;;
66585;SDS011;53444;45.822;16.092;2022-09-01T03:58:06;6.00;;;3.70;;
66585;SDS011;53444;45.822;16.092;2022-09-01T04:00:38;3.60;;;3.30;;
66585;SDS011;53444;45.822;16.092;2022-09-01T04:03:08;4.07;;;3.53;;
66585;SDS011;53444;45.822;16.092;2022-09-01T04:05:37;3.80;;;3.40;;
66585;SDS011;53444;45.822;16.092;2022-09-01T04:08:05;4.72;;;4.20;;
66585;SDS011;53444;45.822;16.092;2022-09-01T04:10:36;5.00;;;3.40;;
66585;SDS011;53444;45.822;16.092;2022-09-01T04:13:13;5.78;;;3.70;;
66585;SDS011;53444;45.822;16.092;2022-09-01T04:15:42;4.82;;;3.92;;
66585;SDS011;53444;45.822;16.092;2022-09-01T04:18:09;5.25;;;3.72;;
66585;SDS011;53444;45.822;16.092;2022-09-01T04:20:44;7.40;;;3.97;;
66585;SDS011;53444;45.822;16.092;2022-09-01T04:23:15;4.33;;;3.60;;
66585;SDS011;53444;45.822;16.092;2022-09-01T04:25:46;4.70;;;3.92;;
66585;SDS011;53444;45.822;16.092;2022-09-01T04:28:14;4.22;;;3.55;;
66585;SDS011;53444;45.822;16.092;2022-09-01T04:30:49;5.35;;;3.55;;
66585;SDS011;53444;45.822;16.092;2022-09-01T04:33:20;4.93;;;3.58;;
66585;SDS011;53444;45.822;16.092;2022-09-01T04:35:48;4.40;;;4.00;;
66585;SDS011;53444;45.822;16.092;2022-09-01T04:38:14;7.32;;;3.75;;
66585;SDS011;53444;45.822;16.092;2022-09-01T04:40:42;4.53;;;3.70;;
66585;SDS011;53444;45.822;16.092;2022-09-01T04:43:09;4.75;;;4.00;;
66585;SDS011;53444;45.822;16.092;2022-09-01T04:45:36;4.95;;;4.22;;
66585;SDS011;53444;45.822;16.092;2022-09-01T04:48:04;4.80;;;4.20;;
66585;SDS011;53444;45.822;16.092;2022-09-01T04:50:31;5.25;;;3.58;;
66585;SDS011;53444;45.822;16.092;2022-09-01T04:52:59;4.20;;;3.80;;
66585;SDS011;53444;45.822;16.092;2022-09-01T04:55:28;4.18;;;3.70;;
66585;SDS011;53444;45.822;16.092;2022-09-01T04:57:56;4.72;;;3.90;;
66585;SDS011;53444;45.822;16.092;2022-09-01T05:00:25;4.23;;;3.83;;
66585;SDS011;53444;45.822;16.092;2022-09-01T05:02:57;4.10;;;3.38;;
66585;SDS011;53444;45.822;16.092;2022-09-01T05:05:35;4.60;;;4.20;;
66585;SDS011;53444;45.822;16.092;2022-09-01T05:08:06;5.13;;;4.00;;
66585;SDS011;53444;45.822;16.092;2022-09-01T05:10:38;4.85;;;4.03;;
66585;SDS011;53444;45.822;16.092;2022-09-01T05:13:06;4.30;;;3.67;;
66585;SDS011;53444;45.822;16.092;2022-09-01T05:15:36;7.07;;;4.00;;
66585;SDS011;53444;45.822;16.092;2022-09-01T05:18:04;4.53;;;4.07;;
66585;SDS011;53444;45.822;16.092;2022-09-01T05:20:37;5.68;;;4.32;;
66585;SDS011;53444;45.822;16.092;2022-09-01T05:23:07;4.45;;;4.03;;
66585;SDS011;53444;45.822;16.092;2022-09-01T05:25:37;5.03;;;4.37;;
66585;SDS011;53444;45.822;16.092;2022-09-01T05:28:06;4.75;;;3.80;;
66585;SDS011;53444;45.822;16.092;2022-09-01T05:30:34;4.68;;;4.07;;
66585;SDS011;53444;45.822;16.092;2022-09-01T05:33:02;6.32;;;4.10;;
66585;SDS011;53444;45.822;16.092;2022-09-01T05:35:34;4.55;;;3.92;;
66585;SDS011;53444;45.822;16.092;2022-09-01T05:38:05;8.43;;;4.03;;
66585;SDS011;53444;45.822;16.092;2022-09-01T05:40:38;5.18;;;4.00;;
66585;SDS011;53444;45.822;16.092;2022-09-01T05:43:06;5.25;;;4.30;;
66585;SDS011;53444;45.822;16.092;2022-09-01T05:45:38;4.93;;;3.83;;
66585;SDS011;53444;45.822;16.092;2022-09-01T05:48:08;6.65;;;4.20;;
66585;SDS011;53444;45.822;16.092;2022-09-01T05:50:39;6.73;;;4.03;;
66585;SDS011;53444;45.822;16.092;2022-09-01T05:53:07;4.80;;;4.30;;
66585;SDS011;53444;45.822;16.092;2022-09-01T05:55:40;5.50;;;4.50;;
66585;SDS011;53444;45.822;16.092;2022-09-01T05:58:09;4.60;;;4.07;;
66585;SDS011;53444;45.822;16.092;2022-09-01T06:00:37;5.57;;;4.43;;
66585;SDS011;53444;45.822;16.092;2022-09-01T06:03:05;5.13;;;4.23;;
66585;SDS011;53444;45.822;16.092;2022-09-01T06:05:33;6.35;;;4.70;;
66585;SDS011;53444;45.822;16.092;2022-09-01T06:08:02;4.72;;;4.32;;
66585;SDS011;53444;45.822;16.092;2022-09-01T06:10:30;4.55;;;4.10;;
66585;SDS011;53444;45.822;16.092;2022-09-01T06:12:57;6.10;;;4.30;;
66585;SDS011;53444;45.822;16.092;2022-09-01T06:15:26;5.47;;;4.33;;
66585;SDS011;53444;45.822;16.092;2022-09-01T06:17:53;6.38;;;4.07;;
66585;SDS011;53444;45.822;16.092;2022-09-01T06:20:20;5.63;;;4.30;;
66585;SDS011;53444;45.822;16.092;2022-09-01T06:22:47;5.32;;;4.45;;
66585;SDS011;53444;45.822;16.092;2022-09-01T06:25:18;4.88;;;4.38;;
66585;SDS011;53444;45.822;16.092;2022-09-01T06:27:45;6.03;;;4.30;;
66585;SDS011;53444;45.822;16.092;2022-09-01T06:30:13;6.72;;;4.00;;
66585;SDS011;53444;45.822;16.092;2022-09-01T06:32:44;4.47;;;4.07;;
66585;SDS011;53444;45.822;16.092;2022-09-01T06:35:14;4.70;;;4.25;;
66585;SDS011;53444;45.822;16.092;2022-09-01T06:37:42;4.78;;;4.30;;
66585;SDS011;53444;45.822;16.092;2022-09-01T06:40:10;4.67;;;4.17;;
66585;SDS011;53444;45.822;16.092;2022-09-01T06:42:43;4.47;;;3.92;;
66585;SDS011;53444;45.822;16.092;2022-09-01T06:45:11;6.28;;;4.30;;
66585;SDS011;53444;45.822;16.092;2022-09-01T06:47:39;4.80;;;4.30;;
66585;SDS011;53444;45.822;16.092;2022-09-01T06:50:08;4.50;;;4.10;;
66585;SDS011;53444;45.822;16.092;2022-09-01T06:52:37;4.40;;;4.00;;
66585;SDS011;53444;45.822;16.092;2022-09-01T06:55:04;4.40;;;3.85;;
66585;SDS011;53444;45.822;16.092;2022-09-01T06:57:31;7.47;;;4.40;;
66585;SDS011;53444;45.822;16.092;2022-09-01T07:00:02;6.10;;;4.28;;
66585;SDS011;53444;45.822;16.092;2022-09-01T07:02:39;4.88;;;4.22;;
66585;SDS011;53444;45.822;16.092;2022-09-01T07:05:07;4.17;;;3.70;;
66585;SDS011;53444;45.822;16.092;2022-09-01T07:07:34;5.03;;;4.10;;
66585;SDS011;53444;45.822;16.092;2022-09-01T07:10:01;6.28;;;4.45;;
66585;SDS011;53444;45.822;16.092;2022-09-01T07:12:29;6.93;;;4.50;;
66585;SDS011;53444;45.822;16.092;2022-09-01T07:14:56;4.82;;;4.35;;
66585;SDS011;53444;45.822;16.092;2022-09-01T07:17:26;4.50;;;3.87;;
66585;SDS011;53444;45.822;16.092;2022-09-01T07:19:54;7.68;;;3.67;;
66585;SDS011;53444;45.822;16.092;2022-09-01T07:22:21;7.80;;;4.38;;
66585;SDS011;53444;45.822;16.092;2022-09-01T07:24:48;6.45;;;3.92;;
66585;SDS011;53444;45.822;16.092;2022-09-01T07:27:19;4.32;;;3.92;;
66585;SDS011;53444;45.822;16.092;2022-09-01T07:29:52;4.33;;;3.90;;
66585;SDS011;53444;45.822;16.092;2022-09-01T07:32:20;5.32;;;3.83;;
66585;SDS011;53444;45.822;16.092;2022-09-01T07:34:48;4.90;;;3.80;;
66585;SDS011;53444;45.822;16.092;2022-09-01T07:37:16;8.27;;;4.05;;
66585;SDS011;53444;45.822;16.092;2022-09-01T07:39:47;5.43;;;4.00;;
66585;SDS011;53444;45.822;16.092;2022-09-01T07:42:15;5.23;;;4.00;;
66585;SDS011;53444;45.822;16.092;2022-09-01T07:44:42;5.28;;;4.45;;
66585;SDS011;53444;45.822;16.092;2022-09-01T07:47:09;4.18;;;3.63;;
66585;SDS011;53444;45.822;16.092;2022-09-01T07:49:39;6.57;;;4.80;;
66585;SDS011;53444;45.822;16.092;2022-09-01T07:52:07;5.88;;;4.38;;
66585;SDS011;53444;45.822;16.092;2022-09-01T07:54:34;6.53;;;4.50;;
66585;SDS011;53444;45.822;16.092;2022-09-01T07:57:01;5.00;;;4.30;;
66585;SDS011;53444;45.822;16.092;2022-09-01T07:59:29;5.40;;;4.20;;
66585;SDS011;53444;45.822;16.092;2022-09-01T08:01:57;7.38;;;4.60;;
66585;SDS011;53444;45.822;16.092;2022-09-01T08:04:25;4.70;;;4.03;;
66585;SDS011;53444;45.822;16.092;2022-09-01T08:06:51;5.20;;;4.70;;
66585;SDS011;53444;45.822;16.092;2022-09-01T08:09:21;8.38;;;4.60;;
66585;SDS011;53444;45.822;16.092;2022-09-01T08:11:48;5.38;;;4.88;;
66585;SDS011;53444;45.822;16.092;2022-09-01T08:14:14;5.28;;;4.63;;
66585;SDS011;53444;45.822;16.092;2022-09-01T08:16:41;5.75;;;5.00;;
66585;SDS011;53444;45.822;16.092;2022-09-01T08:19:08;7.07;;;5.07;;
66585;SDS011;53444;45.822;16.092;2022-09-01T08:21:35;6.63;;;5.28;;
66585;SDS011;53444;45.822;16.092;2022-09-01T08:24:02;7.28;;;5.78;;
66585;SDS011;53444;45.822;16.092;2022-09-01T08:26:30;7.03;;;5.38;;
66585;SDS011;53444;45.822;16.092;2022-09-01T08:28:57;5.88;;;4.97;;
66585;SDS011;53444;45.822;16.092;2022-09-01T08:31:24;7.73;;;5.30;;
66585;SDS011;53444;45.822;16.092;2022-09-01T08:33:53;6.25;;;5.63;;
66585;SDS011;53444;45.822;16.092;2022-09-01T08:36:20;8.13;;;6.35;;
66585;SDS011;53444;45.822;16.092;2022-09-01T08:38:47;6.47;;;5.88;;
66585;SDS011;53444;45.822;16.092;2022-09-01T08:41:15;6.90;;;6.20;;
66585;SDS011;53444;45.822;16.092;2022-09-01T08:43:51;7.10;;;6.33;;
66585;SDS011;53444;45.822;16.092;2022-09-01T08:46:26;7.45;;;6.68;;
66585;SDS011;53444;45.822;16.092;2022-09-01T08:48:55;8.23;;;6.40;;
66585;SDS011;53444;45.822;16.092;2022-09-01T08:51:24;7.28;;;6.30;;
66585;SDS011;53444;45.822;16.092;2022-09-01T08:53:57;7.30;;;5.75;;
66585;SDS011;53444;45.822;16.092;2022-09-01T08:56:28;7.13;;;5.97;;
66585;SDS011;53444;45.822;16.092;2022-09-01T08:58:57;6.57;;;5.93;;
66585;SDS011;53444;45.822;16.092;2022-09-01T09:01:28;6.47;;;5.78;;
66585;SDS011;53444;45.822;16.092;2022-09-01T09:04:03;6.72;;;5.68;;
66585;SDS011;53444;45.822;16.092;2022-09-01T09:06:44;6.30;;;5.70;;
66585;SDS011;53444;45.822;16.092;2022-09-01T09:09:16;6.00;;;5.40;;
66585;SDS011;53444;45.822;16.092;2022-09-01T09:11:52;5.70;;;5.13;;
66585;SDS011;53444;45.822;16.092;2022-09-01T09:14:56;6.30;;;5.03;;
66585;SDS011;53444;45.822;16.092;2022-09-01T09:17:36;7.28;;;4.32;;
66585;SDS011;53444;45.822;16.092;2022-09-01T09:20:07;5.55;;;4.50;;
66585;SDS011;53444;45.822;16.092;2022-09-01T09:22:34;5.37;;;4.50;;
66585;SDS011;53444;45.822;16.092;2022-09-01T09:25:02;6.28;;;4.28;;
66585;SDS011;53444;45.822;16.092;2022-09-01T09:27:33;4.30;;;3.85;;
66585;SDS011;53444;45.822;16.092;2022-09-01T09:30:04;4.57;;;3.80;;
66585;SDS011;53444;45.822;16.092;2022-09-01T09:32:43;4.15;;;3.70;;
66585;SDS011;53444;45.822;16.092;2022-09-01T09:35:17;6.37;;;3.70;;
66585;SDS011;53444;45.822;16.092;2022-09-01T09:37:48;3.92;;;3.50;;
66585;SDS011;53444;45.822;16.092;2022-09-01T09:40:16;6.38;;;3.35;;
66585;SDS011;53444;45.822;16.092;2022-09-01T09:42:58;4.60;;;3.35;;
66585;SDS011;53444;45.822;16.092;2022-09-01T09:45:33;4.53;;;3.47;;
66585;SDS011;53444;45.822;16.092;2022-09-01T09:48:06;3.70;;;3.40;;
66585;SDS011;53444;45.822;16.092;2022-09-01T09:50:35;3.55;;;3.22;;
66585;SDS011;53444;45.822;16.092;2022-09-01T09:53:16;4.07;;;3.67;;
66585;SDS011;53444;45.822;16.092;2022-09-01T09:55:56;5.00;;;3.90;;
66585;SDS011;53444;45.822;16.092;2022-09-01T09:58:25;4.88;;;3.90;;
66585;SDS011;53444;45.822;16.092;2022-09-01T10:01:01;4.20;;;3.13;;
66585;SDS011;53444;45.822;16.092;2022-09-01T10:03:35;4.70;;;3.28;;
66585;SDS011;53444;45.822;16.092;2022-09-01T10:06:08;7.03;;;3.53;;
66585;SDS011;53444;45.822;16.092;2022-09-01T10:08:37;3.75;;;3.15;;
66585;SDS011;53444;45.822;16.092;2022-09-01T10:11:09;4.05;;;3.42;;
66585;SDS011;53444;45.822;16.092;2022-09-01T10:13:37;4.53;;;3.40;;
66585;SDS011;53444;45.822;16.092;2022-09-01T10:16:08;3.40;;;3.08;;
66585;SDS011;53444;45.822;16.092;2022-09-01T10:18:42;3.55;;;3.20;;
66585;SDS011;53444;45.822;16.092;2022-09-01T10:21:11;3.95;;;3.30;;
66585;SDS011;53444;45.822;16.092;2022-09-01T10:23:41;4.10;;;3.70;;
66585;SDS011;53444;45.822;16.092;2022-09-01T10:26:08;3.73;;;3.30;;
66585;SDS011;53444;45.822;16.092;2022-09-01T10:28:40;4.07;;;3.50;;
66585;SDS011;53444;45.822;16.092;2022-09-01T10:31:14;5.72;;;3.63;;
66585;SDS011;53444;45.822;16.092;2022-09-01T10:33:41;4.80;;;3.97;;
66585;SDS011;53444;45.822;16.092;2022-09-01T10:36:08;4.55;;;4.00;;
66585;SDS011;53444;45.822;16.092;2022-09-01T10:38:35;4.40;;;3.67;;
66585;SDS011;53444;45.822;16.092;2022-09-01T10:41:02;3.80;;;3.50;;
66585;SDS011;53444;45.822;16.092;2022-09-01T10:43:37;4.82;;;3.85;;
66585;SDS011;53444;45.822;16.092;2022-09-01T10:49:23;5.13;;;3.70;;
66585;SDS011;53444;45.822;16.092;2022-09-01T10:55:42;5.18;;;3.90;;
66585;SDS011;53444;45.822;16.092;2022-09-01T11:01:05;5.13;;;3.40;;
66585;SDS011;53444;45.822;16.092;2022-09-01T11:03:36;4.60;;;3.40;;
66585;SDS011;53444;45.822;16.092;2022-09-01T11:06:33;3.87;;;3.30;;
66585;SDS011;53444;45.822;16.092;2022-09-01T11:09:20;4.35;;;3.60;;
66585;SDS011;53444;45.822;16.092;2022-09-01T11:11:50;4.13;;;2.90;;
66585;SDS011;53444;45.822;16.092;2022-09-01T11:14:47;4.97;;;3.40;;
66585;SDS011;53444;45.822;16.092;2022-09-01T11:17:16;4.00;;;3.60;;
66585;SDS011;53444;45.822;16.092;2022-09-01T11:19:46;3.93;;;3.03;;
66585;SDS011;53444;45.822;16.092;2022-09-01T11:22:26;4.22;;;3.17;;
66585;SDS011;53444;45.822;16.092;2022-09-01T11:28:07;4.38;;;3.60;;
66585;SDS011;53444;45.822;16.092;2022-09-01T11:30:50;4.68;;;3.70;;
66585;SDS011;53444;45.822;16.092;2022-09-01T11:33:25;5.43;;;3.97;;
66585;SDS011;53444;45.822;16.092;2022-09-01T11:36:25;5.97;;;3.85;;
66585;SDS011;53444;45.822;16.092;2022-09-01T11:38:57;5.28;;;3.88;;
66585;SDS011;53444;45.822;16.092;2022-09-01T11:41:29;6.35;;;3.78;;
66585;SDS011;53444;45.822;16.092;2022-09-01T11:43:59;6.70;;;4.85;;
66585;SDS011;53444;45.822;16.092;2022-09-01T11:46:29;4.67;;;4.23;;
66585;SDS011;53444;45.822;16.092;2022-09-01T11:49:02;5.43;;;4.65;;
66585;SDS011;53444;45.822;16.092;2022-09-01T11:51:41;7.45;;;5.20;;
66585;SDS011;53444;45.822;16.092;2022-09-01T11:54:12;6.53;;;4.63;;
66585;SDS011;53444;45.822;16.092;2022-09-01T11:56:40;6.75;;;5.10;;
66585;SDS011;53444;45.822;16.092;2022-09-01T11:59:07;8.63;;;5.00;;
66585;SDS011;53444;45.822;16.092;2022-09-01T12:01:34;8.95;;;5.38;;
66585;SDS011;53444;45.822;16.092;2022-09-01T12:04:18;6.15;;;5.55;;
66585;SDS011;53444;45.822;16.092;2022-09-01T12:06:51;6.22;;;5.40;;
66585;SDS011;53444;45.822;16.092;2022-09-01T12:09:21;6.45;;;5.45;;
66585;SDS011;53444;45.822;16.092;2022-09-01T12:11:57;7.50;;;5.30;;
66585;SDS011;53444;45.822;16.092;2022-09-01T12:14:24;7.32;;;5.13;;
66585;SDS011;53444;45.822;16.092;2022-09-01T12:16:58;6.30;;;5.20;;
66585;SDS011;53444;45.822;16.092;2022-09-01T12:19:28;6.20;;;4.72;;
66585;SDS011;53444;45.822;16.092;2022-09-01T12:21:58;6.18;;;5.13;;
66585;SDS011;53444;45.822;16.092;2022-09-01T12:24:29;6.97;;;5.03;;
66585;SDS011;53444;45.822;16.092;2022-09-01T12:26:59;7.05;;;5.20;;
66585;SDS011;53444;45.822;16.092;2022-09-01T12:29:26;6.35;;;4.97;;
66585;SDS011;53444;45.822;16.092;2022-09-01T12:31:54;6.90;;;5.20;;
66585;SDS011;53444;45.822;16.092;2022-09-01T12:34:25;6.07;;;4.88;;
66585;SDS011;53444;45.822;16.092;2022-09-01T12:37:01;8.37;;;4.87;;
66585;SDS011;53444;45.822;16.092;2022-09-01T12:39:35;7.95;;;5.22;;
66585;SDS011;53444;45.822;16.092;2022-09-01T12:42:05;8.52;;;4.95;;
66585;SDS011;53444;45.822;16.092;2022-09-01T12:44:42;5.57;;;5.07;;
66585;SDS011;53444;45.822;16.092;2022-09-01T12:47:13;6.47;;;5.75;;
66585;SDS011;53444;45.822;16.092;2022-09-01T12:50:03;8.47;;;5.10;;
66585;SDS011;53444;45.822;16.092;2022-09-01T12:52:32;6.13;;;5.22;;
66585;SDS011;53444;45.822;16.092;2022-09-01T12:55:07;8.60;;;5.40;;
66585;SDS011;53444;45.822;16.092;2022-09-01T12:57:40;7.40;;;6.22;;
66585;SDS011;53444;45.822;16.092;2022-09-01T13:00:16;8.20;;;6.40;;
66585;SDS011;53444;45.822;16.092;2022-09-01T13:02:45;8.37;;;5.40;;
66585;SDS011;53444;45.822;16.092;2022-09-01T13:05:23;8.60;;;5.80;;
66585;SDS011;53444;45.822;16.092;2022-09-01T13:07:52;7.75;;;6.25;;
66585;SDS011;53444;45.822;16.092;2022-09-01T13:10:20;7.60;;;5.50;;
66585;SDS011;53444;45.822;16.092;2022-09-01T13:12:49;8.18;;;5.70;;
66585;SDS011;53444;45.822;16.092;2022-09-01T13:15:16;7.70;;;5.17;;
66585;SDS011;53444;45.822;16.092;2022-09-01T13:17:44;6.38;;;5.57;;
66585;SDS011;53444;45.822;16.092;2022-09-01T13:20:11;5.95;;;5.20;;
66585;SDS011;53444;45.822;16.092;2022-09-01T13:22:39;9.57;;;5.25;;
66585;SDS011;53444;45.822;16.092;2022-09-01T13:25:08;10.38;;;5.80;;
66585;SDS011;53444;45.822;16.092;2022-09-01T13:27:37;8.23;;;5.20;;
66585;SDS011;53444;45.822;16.092;2022-09-01T13:30:08;6.40;;;5.28;;
66585;SDS011;53444;45.822;16.092;2022-09-01T13:32:36;7.78;;;5.60;;
66585;SDS011;53444;45.822;16.092;2022-09-01T13:35:03;7.78;;;5.72;;
66585;SDS011;53444;45.822;16.092;2022-09-01T13:37:30;8.05;;;5.85;;
66585;SDS011;53444;45.822;16.092;2022-09-01T13:39:58;7.80;;;5.60;;
66585;SDS011;53444;45.822;16.092;2022-09-01T13:42:25;7.95;;;5.93;;
66585;SDS011;53444;45.822;16.092;2022-09-01T13:44:51;9.07;;;5.68;;
66585;SDS011;53444;45.822;16.092;2022-09-01T13:47:18;5.70;;;5.20;;
66585;SDS011;53444;45.822;16.092;2022-09-01T13:49:45;5.95;;;5.28;;
66585;SDS011;53444;45.822;16.092;2022-09-01T13:52:12;11.97;;;5.30;;
66585;SDS011;53444;45.822;16.092;2022-09-01T13:54:38;9.73;;;5.53;;
66585;SDS011;53444;45.822;16.092;2022-09-01T13:57:07;6.50;;;5.32;;
66585;SDS011;53444;45.822;16.092;2022-09-01T13:59:35;8.88;;;5.53;;
66585;SDS011;53444;45.822;16.092;2022-09-01T14:02:02;9.38;;;5.88;;
66585;SDS011;53444;45.822;16.092;2022-09-01T14:04:29;8.87;;;6.77;;
66585;SDS011;53444;45.822;16.092;2022-09-01T14:06:56;8.15;;;6.00;;
66585;SDS011;53444;45.822;16.092;2022-09-01T14:09:24;9.70;;;5.90;;
66585;SDS011;53444;45.822;16.092;2022-09-01T14:11:51;8.88;;;5.38;;
66585;SDS011;53444;45.822;16.092;2022-09-01T14:14:20;7.30;;;5.47;;
66585;SDS011;53444;45.822;16.092;2022-09-01T14:16:47;7.80;;;5.27;;
66585;SDS011;53444;45.822;16.092;2022-09-01T14:19:14;6.22;;;5.50;;
66585;SDS011;53444;45.822;16.092;2022-09-01T14:21:41;7.40;;;5.75;;
66585;SDS011;53444;45.822;16.092;2022-09-01T14:24:08;7.72;;;5.63;;
66585;SDS011;53444;45.822;16.092;2022-09-01T14:26:35;11.40;;;6.25;;
66585;SDS011;53444;45.822;16.092;2022-09-01T14:29:02;7.20;;;5.27;;
66585;SDS011;53444;45.822;16.092;2022-09-01T14:31:30;8.10;;;6.03;;
66585;SDS011;53444;45.822;16.092;2022-09-01T14:33:58;6.93;;;5.97;;
66585;SDS011;53444;45.822;16.092;2022-09-01T14:36:25;5.85;;;5.20;;
66585;SDS011;53444;45.822;16.092;2022-09-01T14:38:52;7.15;;;5.32;;
66585;SDS011;53444;45.822;16.092;2022-09-01T14:41:20;6.23;;;5.63;;
66585;SDS011;53444;45.822;16.092;2022-09-01T14:43:48;9.65;;;5.40;;
66585;SDS011;53444;45.822;16.092;2022-09-01T14:46:15;8.82;;;5.43;;
66585;SDS011;53444;45.822;16.092;2022-09-01T14:48:44;6.35;;;5.40;;
66585;SDS011;53444;45.822;16.092;2022-09-01T14:51:18;6.97;;;5.50;;
66585;SDS011;53444;45.822;16.092;2022-09-01T14:53:47;6.13;;;5.50;;
66585;SDS011;53444;45.822;16.092;2022-09-01T14:56:14;7.50;;;5.25;;
66585;SDS011;53444;45.822;16.092;2022-09-01T14:58:42;7.35;;;5.28;;
66585;SDS011;53444;45.822;16.092;2022-09-01T15:01:11;7.78;;;5.30;;
66585;SDS011;53444;45.822;16.092;2022-09-01T15:03:49;7.78;;;5.63;;